createdAt,value
2018-04-19T03:21:54.079Z,15.09
2018-04-19T03:22:54.074Z,15.03
2018-04-19T03:23:54.119Z,14.90
2018-04-19T03:24:54.022Z,15.30
2018-04-19T03:25:54.028Z,15.41
2018-04-19T03:26:54.016Z,15.63
2018-04-19T03:27:54.016Z,16.00
2018-04-19T03:28:54.046Z,15.63
2018-04-19T03:29:54.039Z,15.46
2018-04-19T03:30:54.014Z,15.42
2018-04-19T03:31:54.019Z,15.63
2018-04-19T03:32:54.031Z,15.54
2018-04-19T03:33:54.058Z,15.26
2018-04-19T03:34:53.993Z,15.57
2018-04-19T03:35:53.990Z,15.68
2018-04-19T03:36:53.992Z,15.66
2018-04-19T03:37:54.074Z,15.46
2018-04-19T03:38:54.017Z,15.15
2018-04-19T03:39:54.000Z,15.19
2018-04-19T03:40:53.980Z,14.91
2018-04-19T03:41:54.004Z,14.84
2018-04-19T03:42:54.038Z,14.69
2018-04-19T03:43:53.984Z,14.68
2018-04-19T03:44:53.997Z,14.52
2018-04-19T03:45:54.016Z,15.06
2018-04-19T03:46:54.023Z,15.23
2018-04-19T03:47:54.041Z,15.17
2018-04-19T03:48:54.054Z,14.75
2018-04-19T03:49:53.983Z,14.83
2018-04-19T03:50:54.016Z,14.67
2018-04-19T03:51:53.981Z,14.80
2018-04-19T03:52:53.984Z,14.90
2018-04-19T03:53:54.004Z,15.12
2018-04-19T03:54:54.105Z,15.11
2018-04-19T03:55:53.973Z,14.71
2018-04-19T03:56:53.982Z,14.57
2018-04-19T03:57:54.000Z,14.69
2018-04-19T03:58:53.996Z,14.71
2018-04-19T03:59:53.999Z,14.87
2018-04-19T04:01:02.709Z,14.74
2018-04-19T04:02:47.502Z,15.23
2018-04-19T04:05:08.544Z,15.57
2018-04-19T04:06:08.505Z,14.90
2018-04-19T04:07:08.541Z,15.09
2018-04-19T04:08:08.509Z,15.03
2018-04-19T04:09:08.515Z,15.21
2018-04-19T04:10:08.446Z,15.05
2018-04-19T04:11:08.516Z,14.95
2018-04-19T04:12:08.453Z,14.80
2018-04-19T04:13:08.448Z,14.57
2018-04-19T04:14:08.541Z,15.09
2018-04-19T04:15:08.461Z,14.98
2018-04-19T04:16:08.464Z,14.93
2018-04-19T04:17:08.474Z,14.43
2018-04-19T04:18:08.498Z,14.43
2018-04-19T04:19:08.461Z,14.35
2018-04-19T04:20:08.430Z,13.83
2018-04-19T04:21:08.430Z,13.80
2018-04-19T04:22:08.432Z,13.83
2018-04-19T04:23:08.434Z,13.70
2018-04-19T04:24:08.423Z,14.04
2018-04-19T04:25:08.433Z,13.80
2018-04-19T04:26:08.460Z,13.77
2018-04-19T04:27:08.519Z,13.69
2018-04-19T04:28:08.449Z,14.06
2018-04-19T04:29:08.608Z,14.31
2018-04-19T04:30:08.451Z,14.14
2018-04-19T04:31:08.539Z,14.49
2018-04-19T04:32:08.461Z,14.90
2018-04-19T04:33:08.436Z,14.61
2018-04-19T04:34:08.418Z,14.87
2018-04-19T04:35:08.439Z,14.47
2018-04-19T04:36:08.409Z,14.88
2018-04-19T04:37:08.497Z,14.78
2018-04-19T04:38:08.420Z,14.56
2018-04-19T04:39:08.410Z,14.67
2018-04-19T04:40:08.456Z,14.62
2018-04-19T04:41:08.536Z,14.84
2018-04-19T04:42:08.539Z,14.61
2018-04-19T04:43:08.458Z,14.68
2018-04-19T04:44:08.438Z,14.46
2018-04-19T04:45:08.444Z,14.54
2018-04-19T04:46:08.439Z,14.62
2018-04-19T04:47:08.423Z,14.83
2018-04-19T04:48:08.403Z,15.28
2018-04-19T04:49:08.428Z,15.03
2018-04-19T04:50:08.398Z,15.09
2018-04-19T04:51:08.428Z,14.47
2018-04-19T04:52:08.402Z,14.46
2018-04-19T04:53:08.402Z,15.08
2018-04-19T04:54:08.646Z,15.11
2018-04-19T04:55:08.421Z,15.03
2018-04-19T04:56:08.416Z,15.03
2018-04-19T04:57:08.443Z,15.36
2018-04-19T04:58:08.971Z,15.35
2018-04-19T04:59:08.448Z,15.17
2018-04-19T05:00:08.503Z,15.33
2018-04-19T05:01:08.393Z,15.36
2018-04-19T05:02:08.419Z,15.27
2018-04-19T05:03:08.396Z,15.11
2018-04-19T05:04:08.390Z,14.95
2018-04-19T05:05:08.394Z,15.05
2018-04-19T05:06:08.397Z,15.23
2018-04-19T05:07:08.472Z,15.21
2018-04-19T05:08:08.409Z,15.24
2018-04-19T05:09:08.449Z,15.02
2018-04-19T05:10:08.513Z,15.17
2018-04-19T05:11:08.405Z,15.54
2018-04-19T05:12:08.433Z,15.66
2018-04-19T05:13:17.148Z,15.64
2018-04-19T05:15:01.930Z,15.79
2018-04-19T05:16:01.824Z,15.81
2018-04-19T05:17:01.821Z,15.88
2018-04-19T05:18:01.829Z,16.25
2018-04-19T05:19:01.915Z,16.45
2018-04-19T05:20:02.044Z,16.38
2018-04-19T05:21:01.958Z,16.50
2018-04-19T05:22:01.957Z,16.95
2018-04-19T05:23:01.911Z,17.18
2018-04-19T05:24:01.857Z,17.78
2018-04-19T05:25:01.881Z,18.25
2018-04-19T05:26:01.979Z,18.37
2018-04-19T05:27:01.901Z,18.72
2018-04-19T05:28:01.884Z,19.08
2018-04-19T05:29:01.890Z,18.91
2018-04-19T05:30:01.924Z,19.08
2018-04-19T05:31:01.910Z,19.31
2018-04-19T05:32:01.957Z,19.17
2018-04-19T05:33:01.937Z,19.55
2018-04-19T05:34:01.972Z,19.73
2018-04-19T05:35:01.928Z,19.84
2018-04-19T05:36:02.007Z,19.63
2018-04-19T05:37:01.944Z,19.75
2018-04-19T05:38:02.002Z,19.91
2018-04-19T05:39:02.016Z,19.70
2018-04-19T05:40:02.011Z,20.03
2018-04-19T05:41:01.988Z,19.97
2018-04-19T05:42:02.098Z,19.86
2018-04-19T05:43:02.041Z,19.78
2018-04-19T05:44:02.121Z,19.21
2018-04-19T05:45:02.114Z,19.08
2018-04-19T05:46:02.073Z,18.91
2018-04-19T05:47:02.144Z,19.17
2018-04-19T05:48:02.089Z,19.33
2018-04-19T05:49:02.106Z,20.02
2018-04-19T05:50:02.204Z,20.27
2018-04-19T05:51:02.157Z,20.66
2018-04-19T05:52:02.181Z,21.09
2018-04-19T05:53:02.134Z,21.53
2018-04-19T05:54:02.229Z,21.50
2018-04-19T05:55:02.304Z,21.75
2018-04-19T05:56:02.275Z,21.98
2018-04-19T05:57:02.300Z,21.94
2018-04-19T05:58:02.215Z,21.69
2018-04-19T05:59:02.317Z,22.22
2018-04-19T06:00:02.356Z,21.91
2018-04-19T06:01:02.323Z,22.39
2018-04-19T06:02:02.457Z,22.49
2018-04-19T06:03:02.441Z,22.56
2018-04-19T06:04:02.374Z,22.65
2018-04-19T06:05:02.453Z,22.75
2018-04-19T06:06:02.367Z,23.15
2018-04-19T06:07:02.553Z,22.99
2018-04-19T06:08:02.423Z,22.87
2018-04-19T06:09:02.724Z,23.12
2018-04-19T06:10:02.536Z,23.07
2018-04-19T06:11:02.547Z,22.44
2018-04-19T06:12:02.454Z,22.89
2018-04-19T06:13:02.420Z,23.05
2018-04-19T06:14:02.466Z,22.50
2018-04-19T06:15:02.436Z,21.60
2018-04-19T06:16:02.507Z,20.95
2018-04-19T06:17:02.548Z,20.42
2018-04-19T06:18:03.320Z,20.10
2018-04-19T06:19:02.563Z,19.58
2018-04-19T06:20:02.550Z,19.42
2018-04-19T06:21:02.542Z,19.06
2018-04-19T06:22:02.738Z,18.82
2018-04-19T06:23:02.612Z,18.98
2018-04-19T06:24:02.609Z,18.92
2018-04-19T06:25:02.586Z,18.86
2018-04-19T06:26:02.604Z,18.73
2018-04-19T06:27:02.615Z,18.62
2018-04-19T06:28:02.625Z,18.70
2018-04-19T06:29:02.622Z,18.62
2018-04-19T06:30:02.670Z,18.55
2018-04-19T06:31:02.613Z,18.57
2018-04-19T06:32:02.641Z,18.59
2018-04-19T06:33:02.598Z,18.29
2018-04-19T06:34:02.629Z,18.28
2018-04-19T06:35:11.390Z,18.42
2018-04-19T06:36:56.063Z,18.37
2018-04-19T06:39:18.300Z,18.52
2018-04-19T06:40:18.367Z,18.31
2018-04-19T06:41:18.292Z,18.24
2018-04-19T06:42:18.367Z,18.18
2018-04-19T06:44:40.833Z,18.36
2018-04-19T06:45:40.710Z,18.36
2018-04-19T06:46:40.628Z,18.19
2018-04-19T06:47:40.583Z,18.00
2018-04-19T06:48:40.578Z,18.09
2018-04-19T06:49:40.605Z,18.15
2018-04-19T06:50:40.589Z,18.10
2018-04-19T06:51:40.584Z,18.22
2018-04-19T06:52:40.564Z,18.07
2018-04-19T06:53:40.668Z,18.10
2018-04-19T06:54:40.565Z,18.09
2018-04-19T06:55:40.586Z,17.97
2018-04-19T06:56:40.610Z,18.18
2018-04-19T06:57:40.584Z,18.22
2018-04-19T06:58:40.619Z,18.27
2018-04-19T06:59:40.694Z,18.17
2018-04-19T07:00:40.618Z,18.10
2018-04-19T07:01:40.613Z,17.84
2018-04-19T07:02:40.620Z,17.97
2018-04-19T07:03:40.607Z,18.09
2018-04-19T07:04:40.619Z,17.97
2018-04-19T07:05:40.642Z,18.06
2018-04-19T07:06:43.369Z,18.06
2018-04-19T07:07:40.639Z,18.06
2018-04-19T07:08:40.703Z,18.03
2018-04-19T07:09:40.629Z,17.99
2018-04-19T07:10:40.612Z,18.02
2018-04-19T07:11:40.630Z,17.82
2018-04-19T07:12:40.640Z,18.07
2018-04-19T07:13:40.657Z,18.15
2018-04-19T07:14:42.387Z,18.15
2018-04-19T07:15:40.627Z,18.36
2018-04-19T07:16:40.627Z,18.40
2018-04-19T07:17:40.628Z,18.34
2018-04-19T07:18:40.629Z,18.31
2018-04-19T07:19:42.394Z,18.33
2018-04-19T07:20:40.634Z,18.24
2018-04-19T07:21:40.653Z,18.39
2018-04-19T07:22:40.656Z,18.33
2018-04-19T07:23:40.663Z,18.33
2018-04-19T07:24:42.407Z,18.34
2018-04-19T07:25:40.649Z,18.39
2018-04-19T07:26:40.674Z,18.44
2018-04-19T07:27:40.680Z,18.52
2018-04-19T07:28:40.699Z,18.50
2018-04-19T07:29:40.660Z,18.49
2018-04-19T07:30:40.667Z,18.49
2018-04-19T07:31:40.677Z,18.61
2018-04-19T07:32:40.685Z,18.58
2018-04-19T07:33:40.671Z,18.36
2018-04-19T07:36:01.834Z,18.44
2018-04-19T07:38:22.780Z,18.67
2018-04-19T07:39:22.779Z,18.76
2018-04-19T07:40:22.793Z,18.62
2018-04-19T07:41:22.885Z,18.64
2018-04-19T07:42:22.789Z,18.62
2018-04-19T07:43:22.796Z,18.77
2018-04-19T07:44:22.804Z,18.59
2018-04-19T07:45:22.805Z,18.59
2018-04-19T07:46:22.803Z,18.58
2018-04-19T07:47:22.798Z,18.76
2018-04-19T07:48:22.796Z,18.86
2018-04-19T07:49:22.815Z,18.99
2018-04-19T07:50:22.822Z,18.99
2018-04-19T07:51:22.816Z,19.02
2018-04-19T07:52:22.808Z,18.99
2018-04-19T07:53:22.823Z,19.02
2018-04-19T07:54:22.851Z,19.06
2018-04-19T07:55:22.828Z,19.01
2018-04-19T07:56:22.823Z,19.06
2018-04-19T07:57:22.831Z,19.05
2018-04-19T07:58:22.827Z,19.13
2018-04-19T07:59:22.829Z,19.23
2018-04-19T08:00:22.846Z,19.20
2018-04-19T08:01:22.834Z,19.08
2018-04-19T08:02:22.835Z,19.48
2018-04-19T08:03:22.842Z,19.33
2018-04-19T08:04:22.852Z,19.39
2018-04-19T08:05:22.888Z,19.33
2018-04-19T08:06:22.852Z,19.39
2018-04-19T08:07:22.864Z,19.31
2018-04-19T08:08:22.855Z,19.42
2018-04-19T08:09:22.864Z,19.38
2018-04-19T08:10:22.870Z,19.40
2018-04-19T08:11:22.884Z,19.43
2018-04-19T08:12:22.890Z,19.33
2018-04-19T08:13:22.874Z,19.40
2018-04-19T08:14:22.881Z,19.53
2018-04-19T08:15:22.885Z,19.35
2018-04-19T08:16:22.883Z,19.50
2018-04-19T08:17:22.896Z,19.73
2018-04-19T08:18:22.892Z,19.72
2018-04-19T08:19:22.886Z,19.70
2018-04-19T08:20:22.891Z,19.73
2018-04-19T08:21:22.913Z,19.94
2018-04-19T08:22:22.898Z,19.86
2018-04-19T08:23:22.927Z,19.73
2018-04-19T08:24:22.916Z,20.00
2018-04-19T08:25:22.910Z,19.79
2018-04-19T08:26:22.922Z,19.76
2018-04-19T08:27:22.912Z,19.94
2018-04-19T08:28:22.944Z,20.20
2018-04-19T08:29:22.937Z,20.25
2018-04-19T08:30:22.921Z,20.27
2018-04-19T08:31:22.926Z,20.27
2018-04-19T08:32:22.931Z,20.21
2018-04-19T08:33:22.946Z,20.35
2018-04-19T08:34:22.948Z,20.35
2018-04-19T08:35:22.996Z,20.27
2018-04-19T08:36:22.946Z,20.38
2018-04-19T08:37:22.950Z,20.38
2018-04-19T08:38:22.962Z,20.41
2018-04-19T08:39:22.984Z,20.21
2018-04-19T08:40:22.957Z,20.38
2018-04-19T08:41:22.977Z,20.51
2018-04-19T08:42:22.995Z,20.54
2018-04-19T08:43:22.973Z,20.47
2018-04-19T08:44:23.011Z,20.62
2018-04-19T08:45:23.013Z,20.61
2018-04-19T08:46:23.007Z,20.58
2018-04-19T08:47:22.999Z,20.62
2018-04-19T08:48:23.029Z,20.59
2018-04-19T08:49:23.028Z,20.56
2018-04-19T08:50:23.031Z,20.61
2018-04-19T08:51:23.074Z,20.74
2018-04-19T08:52:23.030Z,20.87
2018-04-19T08:53:23.013Z,20.74
2018-04-19T08:54:23.014Z,20.84
2018-04-19T08:55:23.030Z,21.14
2018-04-19T08:56:23.076Z,21.16
2018-04-19T08:57:23.068Z,21.13
2018-04-19T08:58:23.060Z,20.93
2018-04-19T08:59:23.047Z,21.01
2018-04-19T09:00:23.037Z,21.16
2018-04-19T09:01:23.089Z,21.21
2018-04-19T09:02:23.040Z,21.11
2018-04-19T09:03:23.042Z,21.13
2018-04-19T09:04:23.051Z,21.16
2018-04-19T09:05:23.053Z,21.41
2018-04-19T09:06:23.066Z,21.14
2018-04-19T09:07:23.117Z,21.14
2018-04-19T09:08:23.078Z,21.30
2018-04-19T09:09:23.140Z,21.79
2018-04-19T09:10:23.095Z,21.95
2018-04-19T09:11:23.095Z,22.16
2018-04-19T09:12:23.137Z,21.85
2018-04-19T09:13:23.114Z,22.06
2018-04-19T09:14:23.120Z,22.02
2018-04-19T09:15:23.116Z,21.67
2018-04-19T09:16:31.827Z,21.91
2018-04-19T09:18:16.577Z,22.31
2018-04-19T09:19:25.265Z,22.69
2018-04-19T09:21:11.029Z,22.84
2018-04-19T09:22:11.007Z,22.80
2018-04-19T09:23:11.019Z,22.82
2018-04-19T09:24:11.046Z,22.74
2018-04-19T09:25:10.992Z,22.29
2018-04-19T09:26:10.975Z,22.47
2018-04-19T09:27:10.986Z,22.13
2018-04-19T09:28:11.002Z,22.25
2018-04-19T09:29:11.017Z,22.56
2018-04-19T09:30:11.008Z,23.17
2018-04-19T09:31:11.052Z,22.80
2018-04-19T09:32:11.035Z,23.07
2018-04-19T09:33:11.025Z,22.97
2018-04-19T09:34:11.092Z,23.19
2018-04-19T09:35:11.014Z,23.12
2018-04-19T09:36:11.016Z,22.92
2018-04-19T09:37:11.022Z,23.12
2018-04-19T09:38:11.058Z,23.20
2018-04-19T09:39:11.032Z,23.32
2018-04-19T09:40:11.040Z,23.42
2018-04-19T09:41:11.041Z,23.12
2018-04-19T09:42:11.047Z,22.84
2018-04-19T09:43:11.055Z,23.40
2018-04-19T09:44:11.066Z,23.45
2018-04-19T09:45:11.070Z,23.39
2018-04-19T09:46:11.108Z,23.40
2018-04-19T09:47:11.075Z,23.70
2018-04-19T09:48:11.112Z,23.49
2018-04-19T09:49:11.137Z,23.29
2018-04-19T09:50:11.111Z,23.29
2018-04-19T09:51:11.087Z,22.80
2018-04-19T09:53:34.314Z,23.53
